Time;durP1;ratioP1;P1;durP2;ratioP2;P2;SDS_P1;SDS_P2;PMS_P1;PMS_P2;Temp;Humidity;BMP_temperature;BMP_pressure;BME280_temperature;BME280_humidity;BME280_pressure;Samples;Min_cycle;Max_cycle;Signal;HPM_P1;HPM_P2
2024/01/23 00:01:26;;;;;;;20.40;2.90;;;;;;;;;;5048419;28;20108;-72
2024/01/23 00:03:52;;;;;;;20.88;3.00;;;;;;;;;;5040355;28;20045;-72
2024/01/23 00:06:18;;;;;;;22.80;2.75;;;;;;;;;;5029477;28;20013;-72
2024/01/23 00:08:44;;;;;;;18.48;3.85;;;;;;;;;;5034482;28;20025;-72
2024/01/23 00:11:10;;;;;;;20.27;3.03;;;;;;;;;;5049456;28;20124;-72
2024/01/23 00:13:36;;;;;;;20.42;2.72;;;;;;;;;;5044731;28;20071;-72
2024/01/23 00:16:02;;;;;;;14.13;2.60;;;;;;;;;;5029285;28;20041;-72
2024/01/23 00:18:28;;;;;;;25.67;3.33;;;;;;;;;;5031117;28;20211;-72
2024/01/23 00:20:54;;;;;;;21.15;2.97;;;;;;;;;;5047695;28;20045;-72
2024/01/23 00:23:20;;;;;;;15.77;2.30;;;;;;;;;;5046577;28;20689;-72
2024/01/23 00:25:47;;;;;;;18.15;2.75;;;;;;;;;;5029335;28;20013;-72
2024/01/23 00:28:13;;;;;;;17.17;2.75;;;;;;;;;;5027681;28;20120;-72
2024/01/23 00:30:40;;;;;;;20.77;3.17;;;;;;;;;;5047795;28;20017;-72
2024/01/23 00:33:06;;;;;;;15.82;2.38;;;;;;;;;;5048471;28;20029;-72
2024/01/23 00:35:32;;;;;;;21.70;2.90;;;;;;;;;;5033267;28;20466;-72
2024/01/23 00:37:58;;;;;;;21.95;3.55;;;;;;;;;;5027476;28;20014;-72
2024/01/23 00:40:24;;;;;;;15.80;2.38;;;;;;;;;;5042937;28;20439;-72
2024/01/23 00:42:50;;;;;;;23.73;3.65;;;;;;;;;;5048596;28;20062;-72
2024/01/23 00:45:16;;;;;;;19.35;3.40;;;;;;;;;;5034508;28;20068;-72
2024/01/23 00:47:42;;;;;;;16.38;3.13;;;;;;;;;;5028813;28;20029;-72
2024/01/23 00:50:09;;;;;;;20.25;3.55;;;;;;;;;;5038036;28;20025;-72
2024/01/23 00:52:35;;;;;;;20.13;3.92;;;;;;;;;;5046966;28;20097;-72
2024/01/23 00:55:03;;;;;;;26.75;3.70;;;;;;;;;;5037359;28;20475;-72
2024/01/23 00:57:29;;;;;;;21.63;3.35;;;;;;;;;;5026887;28;20083;-72
2024/01/23 00:59:55;;;;;;;23.50;2.85;;;;;;;;;;5035860;28;20094;-72
2024/01/23 01:02:21;;;;;;;23.02;3.47;;;;;;;;;;5046836;28;20032;-72
2024/01/23 01:04:47;;;;;;;22.60;2.80;;;;;;;;;;5039569;28;20025;-72
2024/01/23 01:07:14;;;;;;;15.15;3.13;;;;;;;;;;5028486;28;20013;-72
2024/01/23 01:09:40;;;;;;;20.23;2.88;;;;;;;;;;5034261;28;20051;-72
2024/01/23 01:12:06;;;;;;;22.55;3.45;;;;;;;;;;5046847;28;20025;-72
2024/01/23 01:14:34;;;;;;;19.20;2.80;;;;;;;;;;5043452;28;20092;-72
2024/01/23 01:17:00;;;;;;;22.95;3.22;;;;;;;;;;5026759;28;20024;-72
2024/01/23 01:19:26;;;;;;;23.27;3.15;;;;;;;;;;5031827;28;20009;-72
2024/01/23 01:21:52;;;;;;;21.10;3.50;;;;;;;;;;5048374;28;20016;-73
2024/01/23 01:24:18;;;;;;;23.50;3.33;;;;;;;;;;5046768;28;20351;-72
2024/01/23 01:26:44;;;;;;;20.88;3.25;;;;;;;;;;5028450;28;20100;-72
2024/01/23 01:29:10;;;;;;;27.98;3.90;;;;;;;;;;5028006;28;20401;-72
2024/01/23 01:31:36;;;;;;;23.90;3.53;;;;;;;;;;5046508;28;20047;-72
2024/01/23 01:34:02;;;;;;;24.75;3.20;;;;;;;;;;5046708;28;20028;-72
2024/01/23 01:36:28;;;;;;;24.73;3.78;;;;;;;;;;5032873;28;20018;-72
2024/01/23 01:38:56;;;;;;;25.33;3.85;;;;;;;;;;5032491;28;20093;-72
2024/01/23 01:41:22;;;;;;;29.13;3.55;;;;;;;;;;5046070;28;20099;-72
2024/01/23 01:43:48;;;;;;;23.67;3.55;;;;;;;;;;5050724;28;20013;-72
2024/01/23 01:46:24;;;;;;;19.27;3.30;;;;;;;;;;5039624;28;20377;-72
2024/01/23 01:48:51;;;;;;;17.90;3.20;;;;;;;;;;5030856;28;20056;-72
2024/01/23 01:51:20;;;;;;;23.08;3.60;;;;;;;;;;5043202;28;20043;-73
2024/01/23 01:53:48;;;;;;;20.50;3.55;;;;;;;;;;5051988;28;20013;-73
2024/01/23 01:56:14;;;;;;;20.80;3.17;;;;;;;;;;5039091;28;20018;-73
2024/01/23 01:58:43;;;;;;;18.42;3.30;;;;;;;;;;5030543;28;20322;-73
2024/01/23 02:01:10;;;;;;;21.25;2.95;;;;;;;;;;5042805;28;20020;-73
2024/01/23 02:03:36;;;;;;;23.92;4.40;;;;;;;;;;5050300;28;20048;-73
2024/01/23 02:06:04;;;;;;;24.90;3.25;;;;;;;;;;5040746;28;20014;-73
2024/01/23 02:08:30;;;;;;;23.02;3.30;;;;;;;;;;5031622;28;20024;-73
2024/01/23 02:10:56;;;;;;;21.80;3.03;;;;;;;;;;5039956;28;20017;-72
2024/01/23 02:13:23;;;;;;;23.15;3.10;;;;;;;;;;5050090;28;20036;-73
2024/01/23 02:15:49;;;;;;;19.05;3.28;;;;;;;;;;5042695;28;20068;-73
2024/01/23 02:18:15;;;;;;;25.83;3.85;;;;;;;;;;5031550;28;20522;-72
2024/01/23 02:20:41;;;;;;;30.35;4.40;;;;;;;;;;5036069;28;20021;-73
2024/01/23 02:23:14;;;;;;;20.42;2.75;;;;;;;;;;5051179;28;20028;-73
2024/01/23 02:25:40;;;;;;;26.70;3.97;;;;;;;;;;5043788;28;20562;-73
2024/01/23 02:28:07;;;;;;;22.25;3.13;;;;;;;;;;5029942;28;20042;-72
2024/01/23 02:30:34;;;;;;;17.58;3.33;;;;;;;;;;5034557;28;20021;-73
2024/01/23 02:33:01;;;;;;;22.60;3.25;;;;;;;;;;5049758;28;20291;-72
2024/01/23 02:35:27;;;;;;;22.02;3.38;;;;;;;;;;5047513;28;20036;-73
2024/01/23 02:37:54;;;;;;;20.70;2.95;;;;;;;;;;5029867;28;20022;-73
2024/01/23 02:40:20;;;;;;;27.77;4.53;;;;;;;;;;5031811;28;20029;-73
2024/01/23 02:42:46;;;;;;;25.35;4.32;;;;;;;;;;5049652;28;20056;-72
2024/01/23 02:45:13;;;;;;;23.20;3.35;;;;;;;;;;5048457;28;20559;-73
2024/01/23 02:47:38;;;;;;;24.73;5.03;;;;;;;;;;5029551;28;20363;-73
2024/01/23 02:50:05;;;;;;;21.58;3.20;;;;;;;;;;5029577;28;20499;-72
2024/01/23 02:52:31;;;;;;;26.02;4.60;;;;;;;;;;5048617;28;20032;-73
2024/01/23 02:54:58;;;;;;;21.88;3.20;;;;;;;;;;5049231;28;20017;-73
2024/01/23 02:57:25;;;;;;;29.67;3.78;;;;;;;;;;5032731;28;20017;-73
2024/01/23 02:59:51;;;;;;;24.67;3.47;;;;;;;;;;5029387;28;20367;-73
2024/01/23 03:02:17;;;;;;;28.00;3.47;;;;;;;;;;5046530;28;20675;-73
2024/01/23 03:04:43;;;;;;;24.63;4.22;;;;;;;;;;5049138;28;20055;-72
2024/01/23 03:07:09;;;;;;;28.15;3.58;;;;;;;;;;5034299;28;20384;-72
2024/01/23 03:09:35;;;;;;;30.15;4.43;;;;;;;;;;5030894;28;20021;-73
2024/01/23 03:12:04;;;;;;;29.33;4.00;;;;;;;;;;5042194;28;20576;-73
2024/01/23 03:14:30;;;;;;;19.33;3.30;;;;;;;;;;5049002;28;20444;-73
2024/01/23 03:16:56;;;;;;;23.92;4.90;;;;;;;;;;5036500;28;20533;-73
2024/01/23 03:19:22;;;;;;;24.85;3.70;;;;;;;;;;5029080;28;20020;-73
2024/01/23 03:21:48;;;;;;;28.95;4.18;;;;;;;;;;5039765;28;20384;-72
2024/01/23 03:24:14;;;;;;;25.23;3.92;;;;;;;;;;5048823;28;20477;-73
2024/01/23 03:26:40;;;;;;;28.05;3.90;;;;;;;;;;5039260;28;20083;-73
2024/01/23 03:29:06;;;;;;;22.95;3.63;;;;;;;;;;5028802;28;20045;-72
2024/01/23 03:31:32;;;;;;;27.05;4.18;;;;;;;;;;5036596;28;20057;-73
2024/01/23 03:33:58;;;;;;;23.25;3.70;;;;;;;;;;5048742;28;20259;-73
2024/01/23 03:36:24;;;;;;;26.95;3.67;;;;;;;;;;5041977;28;20076;-73
2024/01/23 03:38:50;;;;;;;24.88;3.80;;;;;;;;;;5028621;28;20014;-73
2024/01/23 03:41:16;;;;;;;28.92;4.45;;;;;;;;;;5035067;28;20535;-73
2024/01/23 03:43:42;;;;;;;26.50;3.80;;;;;;;;;;5048611;28;20259;-73
2024/01/23 03:46:08;;;;;;;26.17;4.82;;;;;;;;;;5048259;28;20017;-73
2024/01/23 03:48:34;;;;;;;39.25;5.18;;;;;;;;;;5049666;28;20025;-73
2024/01/23 03:51:00;;;;;;;26.63;4.00;;;;;;;;;;5045614;28;20013;-73
2024/01/23 03:53:26;;;;;;;24.23;4.00;;;;;;;;;;5030023;28;20052;-73
2024/01/23 03:55:52;;;;;;;23.27;3.80;;;;;;;;;;5028249;28;20528;-73
2024/01/23 03:58:18;;;;;;;28.60;4.40;;;;;;;;;;5028762;28;20017;-73
2024/01/23 04:00:44;;;;;;;28.52;4.30;;;;;;;;;;5028484;28;20361;-73
2024/01/23 04:03:10;;;;;;;23.52;3.35;;;;;;;;;;5045819;28;20017;-73
2024/01/23 04:05:36;;;;;;;21.55;4.57;;;;;;;;;;5049212;28;20494;-73
2024/01/23 04:08:02;;;;;;;23.65;4.43;;;;;;;;;;5032530;28;20064;-73
2024/01/23 04:10:28;;;;;;;24.70;3.75;;;;;;;;;;5029410;28;20021;-73
2024/01/23 04:12:54;;;;;;;30.73;4.57;;;;;;;;;;5043040;28;20033;-73
2024/01/23 04:15:20;;;;;;;31.70;4.53;;;;;;;;;;5049210;28;20397;-73
2024/01/23 04:17:47;;;;;;;23.10;4.03;;;;;;;;;;5034165;28;20022;-73
2024/01/23 04:20:12;;;;;;;27.25;4.75;;;;;;;;;;5029159;28;20488;-73
2024/01/23 04:22:39;;;;;;;21.50;4.05;;;;;;;;;;5037704;28;20013;-73
2024/01/23 04:25:05;;;;;;;23.38;4.50;;;;;;;;;;5047632;28;20017;-73
2024/01/23 04:27:31;;;;;;;33.70;4.18;;;;;;;;;;5040328;28;20032;-73
2024/01/23 04:29:57;;;;;;;28.05;4.88;;;;;;;;;;5027759;28;20092;-73
2024/01/23 04:32:23;;;;;;;30.25;4.20;;;;;;;;;;5035656;28;20419;-73
2024/01/23 04:34:49;;;;;;;30.25;4.00;;;;;;;;;;5047214;28;20013;-73
2024/01/23 04:37:15;;;;;;;24.13;3.45;;;;;;;;;;5045354;28;20025;-78
2024/01/23 04:39:41;;;;;;;24.15;4.50;;;;;;;;;;5028827;28;20429;-77
2024/01/23 04:42:07;;;;;;;31.25;4.28;;;;;;;;;;5030264;28;20021;-78
2024/01/23 04:44:33;;;;;;;30.63;4.68;;;;;;;;;;5048657;28;20017;-77
2024/01/23 04:46:59;;;;;;;31.80;5.03;;;;;;;;;;5047001;28;20283;-77
2024/01/23 04:49:25;;;;;;;34.15;4.28;;;;;;;;;;5027525;28;20524;-77
2024/01/23 04:51:51;;;;;;;30.05;4.82;;;;;;;;;;5027344;28;20021;-77
2024/01/23 04:54:17;;;;;;;26.98;3.90;;;;;;;;;;5047321;28;20021;-78
2024/01/23 04:56:43;;;;;;;32.15;4.43;;;;;;;;;;5047261;28;20009;-77
2024/01/23 04:59:09;;;;;;;25.58;4.05;;;;;;;;;;5030234;28;20425;-78
2024/01/23 05:01:35;;;;;;;31.60;5.70;;;;;;;;;;5028806;28;20021;-78
2024/01/23 05:04:01;;;;;;;34.15;4.00;;;;;;;;;;5042762;28;20086;-78
2024/01/23 05:06:29;;;;;;;28.88;5.28;;;;;;;;;;5047167;28;20020;-78
2024/01/23 05:08:55;;;;;;;32.45;4.38;;;;;;;;;;5033729;28;20032;-79
2024/01/23 05:11:21;;;;;;;33.97;4.78;;;;;;;;;;5026833;28;20013;-78
2024/01/23 05:13:47;;;;;;;28.15;4.55;;;;;;;;;;5041038;28;20361;-78
2024/01/23 05:16:13;;;;;;;34.42;5.30;;;;;;;;;;5048161;28;20065;-78
2024/01/23 05:18:39;;;;;;;31.60;5.25;;;;;;;;;;5037583;28;20429;-78
2024/01/23 05:21:05;;;;;;;27.60;4.18;;;;;;;;;;5043423;28;20044;-78
2024/01/23 05:23:31;;;;;;;32.78;5.93;;;;;;;;;;5046875;28;20063;-78
2024/01/23 05:25:57;;;;;;;40.35;4.88;;;;;;;;;;5046391;28;20400;-83
2024/01/23 05:28:23;;;;;;;31.70;4.53;;;;;;;;;;5044913;28;20448;-78
2024/01/23 05:30:49;;;;;;;40.03;5.20;;;;;;;;;;5047271;28;20481;-78
2024/01/23 05:33:15;;;;;;;37.08;5.35;;;;;;;;;;5046307;28;20021;-77
2024/01/23 05:35:41;;;;;;;33.92;4.75;;;;;;;;;;5047313;28;20099;-77
2024/01/23 05:38:07;;;;;;;35.67;4.97;;;;;;;;;;5045632;28;20477;-79
2024/01/23 05:40:33;;;;;;;37.88;5.13;;;;;;;;;;5045151;28;20013;-78
2024/01/23 05:43:00;;;;;;;37.03;5.45;;;;;;;;;;5045760;28;20017;-78
2024/01/23 05:45:26;;;;;;;27.60;5.10;;;;;;;;;;5045731;28;20381;-79
2024/01/23 05:47:52;;;;;;;39.42;5.55;;;;;;;;;;5045557;28;20242;-77
2024/01/23 05:50:18;;;;;;;41.97;5.45;;;;;;;;;;5044739;28;20013;-78
2024/01/23 05:52:44;;;;;;;28.60;5.32;;;;;;;;;;5045575;28;20033;-78
2024/01/23 05:55:11;;;;;;;35.08;4.97;;;;;;;;;;5043028;28;20352;-78
2024/01/23 05:57:37;;;;;;;40.70;5.32;;;;;;;;;;5034564;28;20096;-85
2024/01/23 06:00:05;;;;;;;37.47;4.75;;;;;;;;;;5027053;28;20108;-79
2024/01/23 06:02:31;;;;;;;39.40;5.10;;;;;;;;;;5041281;28;20362;-78
2024/01/23 06:04:58;;;;;;;38.85;5.00;;;;;;;;;;5047731;28;20473;-78
2024/01/23 06:07:24;;;;;;;33.75;5.13;;;;;;;;;;5046461;28;20021;-78
2024/01/23 06:09:50;;;;;;;35.33;5.85;;;;;;;;;;5031704;28;20474;-78
2024/01/23 06:12:16;;;;;;;34.55;4.60;;;;;;;;;;5026386;28;20124;-78
2024/01/23 06:14:42;;;;;;;35.20;5.07;;;;;;;;;;5042322;28;20092;-78
2024/01/23 06:17:08;;;;;;;30.00;4.93;;;;;;;;;;5047509;28;20096;-78
2024/01/23 06:19:35;;;;;;;35.45;5.10;;;;;;;;;;5032872;28;20065;-78
2024/01/23 06:22:01;;;;;;;36.03;5.45;;;;;;;;;;5030367;28;20017;-78
2024/01/23 06:24:27;;;;;;;44.10;5.18;;;;;;;;;;5043788;28;20031;-80
2024/01/23 06:26:53;;;;;;;37.28;4.90;;;;;;;;;;5049987;28;20044;-79
2024/01/23 06:29:19;;;;;;;33.67;4.15;;;;;;;;;;5039021;28;20041;-79
2024/01/23 06:31:47;;;;;;;30.15;4.43;;;;;;;;;;5030127;28;20025;-79
2024/01/23 06:34:13;;;;;;;40.10;6.13;;;;;;;;;;5039829;28;20441;-79
2024/01/23 06:36:39;;;;;;;38.17;5.25;;;;;;;;;;5049814;28;20134;-80
2024/01/23 06:39:05;;;;;;;31.65;5.13;;;;;;;;;;5042734;28;20510;-80
2024/01/23 06:41:31;;;;;;;34.63;4.78;;;;;;;;;;5031154;28;20553;-79
2024/01/23 06:43:58;;;;;;;33.10;5.22;;;;;;;;;;5034731;28;20363;-80
2024/01/23 06:46:24;;;;;;;40.42;6.25;;;;;;;;;;5049661;28;20097;-79
2024/01/23 06:48:50;;;;;;;47.08;5.50;;;;;;;;;;5046298;28;20116;-79
2024/01/23 06:51:16;;;;;;;31.63;5.45;;;;;;;;;;5030062;28;20018;-80
2024/01/23 06:53:42;;;;;;;40.15;5.45;;;;;;;;;;5032378;28;20010;-83
2024/01/23 06:56:08;;;;;;;37.78;5.35;;;;;;;;;;5050574;28;20013;-79
2024/01/23 06:58:34;;;;;;;29.95;5.70;;;;;;;;;;5051902;28;20117;-86
2024/01/23 07:01:00;;;;;;;44.95;5.45;;;;;;;;;;5050085;28;20009;-80
2024/01/23 07:03:26;;;;;;;44.05;5.40;;;;;;;;;;5048858;28;20028;-80
2024/01/23 07:05:52;;;;;;;35.67;5.50;;;;;;;;;;5049610;28;20027;-80
2024/01/23 07:08:18;;;;;;;38.45;5.00;;;;;;;;;;5033650;28;20501;-80
2024/01/23 07:10:44;;;;;;;33.65;5.15;;;;;;;;;;5046429;28;20017;-80
2024/01/23 07:13:10;;;;;;;32.42;4.63;;;;;;;;;;5047279;28;20025;-80
2024/01/23 07:15:36;;;;;;;37.50;4.93;;;;;;;;;;5032248;28;20017;-80
2024/01/23 07:18:02;;;;;;;38.63;5.47;;;;;;;;;;5030842;28;20128;-80
2024/01/23 07:20:28;;;;;;;33.88;5.65;;;;;;;;;;5044192;28;20027;-80
2024/01/23 07:22:54;;;;;;;37.22;4.85;;;;;;;;;;5050171;28;20273;-80
2024/01/23 07:25:20;;;;;;;44.22;5.65;;;;;;;;;;5036015;28;20474;-80
2024/01/23 07:27:47;;;;;;;38.05;4.88;;;;;;;;;;5030220;28;20481;-80
2024/01/23 07:30:13;;;;;;;34.35;4.88;;;;;;;;;;5042681;28;20016;-80
2024/01/23 07:32:39;;;;;;;31.17;4.60;;;;;;;;;;5049009;28;20021;-80
2024/01/23 07:35:05;;;;;;;39.58;5.03;;;;;;;;;;5039214;28;20014;-80
2024/01/23 07:37:31;;;;;;;38.03;5.80;;;;;;;;;;5029071;28;20152;-80
2024/01/23 07:39:58;;;;;;;41.60;5.13;;;;;;;;;;5036977;28;20021;-80
2024/01/23 07:42:24;;;;;;;36.85;5.05;;;;;;;;;;5050068;28;20013;-80
2024/01/23 07:44:50;;;;;;;32.85;5.30;;;;;;;;;;5043385;28;20029;-80
2024/01/23 07:47:16;;;;;;;35.28;5.63;;;;;;;;;;5030245;28;20021;-80
2024/01/23 07:49:42;;;;;;;36.75;5.50;;;;;;;;;;5033562;28;20104;-80
2024/01/23 07:52:09;;;;;;;32.55;4.75;;;;;;;;;;5050514;28;20462;-80
2024/01/23 07:54:35;;;;;;;35.90;4.78;;;;;;;;;;5047875;28;20024;-80
2024/01/23 07:57:01;;;;;;;39.72;5.50;;;;;;;;;;5035458;28;20021;-80
2024/01/23 07:59:27;;;;;;;43.17;5.15;;;;;;;;;;5048799;28;20058;-80
2024/01/23 08:01:53;;;;;;;34.83;5.00;;;;;;;;;;5048343;28;20424;-80
2024/01/23 08:04:19;;;;;;;42.85;5.80;;;;;;;;;;5048077;28;20013;-80
2024/01/23 08:06:45;;;;;;;44.55;5.90;;;;;;;;;;5048803;28;20040;-80
2024/01/23 08:09:11;;;;;;;35.92;5.57;;;;;;;;;;5049493;28;20419;-80
2024/01/23 08:11:37;;;;;;;35.97;5.07;;;;;;;;;;5049275;28;20029;-80
2024/01/23 08:14:03;;;;;;;39.90;5.78;;;;;;;;;;5049859;28;20038;-80
2024/01/23 08:16:29;;;;;;;40.15;6.65;;;;;;;;;;5034389;28;20010;-80
2024/01/23 08:18:58;;;;;;;42.30;6.13;;;;;;;;;;5041154;28;20087;-80
2024/01/23 08:21:24;;;;;;;40.70;5.72;;;;;;;;;;5044136;28;20023;-80
2024/01/23 08:23:50;;;;;;;45.83;6.63;;;;;;;;;;5047519;28;20010;-80
2024/01/23 08:26:16;;;;;;;33.92;5.07;;;;;;;;;;5047801;28;20408;-80
2024/01/23 08:28:42;;;;;;;44.28;6.07;;;;;;;;;;5047387;28;20400;-80
2024/01/23 08:31:08;;;;;;;37.25;5.63;;;;;;;;;;5048224;28;20465;-80
2024/01/23 08:33:34;;;;;;;40.80;6.07;;;;;;;;;;5047262;28;20481;-80
2024/01/23 08:36:01;;;;;;;47.88;6.47;;;;;;;;;;5044503;28;20055;-80
2024/01/23 08:38:27;;;;;;;42.53;6.60;;;;;;;;;;5048483;28;20016;-79
2024/01/23 08:40:53;;;;;;;39.00;6.55;;;;;;;;;;5044582;28;20234;-80
2024/01/23 08:43:19;;;;;;;32.70;5.85;;;;;;;;;;5048210;28;20017;-80
2024/01/23 08:45:45;;;;;;;44.67;6.65;;;;;;;;;;5048226;28;20051;-80
2024/01/23 08:48:11;;;;;;;32.67;5.97;;;;;;;;;;5047293;28;20040;-80
2024/01/23 08:50:37;;;;;;;36.38;6.15;;;;;;;;;;5046899;28;20017;-80
2024/01/23 08:53:03;;;;;;;39.20;5.57;;;;;;;;;;5045670;28;20021;-80
2024/01/23 08:55:30;;;;;;;30.52;4.45;;;;;;;;;;5047050;28;20009;-80
2024/01/23 08:57:56;;;;;;;30.58;4.85;;;;;;;;;;5043924;28;20108;-80
2024/01/23 09:00:22;;;;;;;31.20;4.90;;;;;;;;;;5047498;28;20051;-80
2024/01/23 09:02:48;;;;;;;29.92;4.90;;;;;;;;;;5044439;28;20025;-80
2024/01/23 09:05:14;;;;;;;33.60;5.82;;;;;;;;;;5046417;28;20020;-80
2024/01/23 09:07:40;;;;;;;30.80;5.50;;;;;;;;;;5040768;28;20024;-80
2024/01/23 09:10:06;;;;;;;37.72;4.88;;;;;;;;;;5047357;28;20484;-81
2024/01/23 09:12:35;;;;;;;40.38;5.40;;;;;;;;;;5029301;28;20038;-80
2024/01/23 09:15:04;;;;;;;31.13;5.68;;;;;;;;;;5043750;28;20037;-80
2024/01/23 09:17:30;;;;;;;35.78;5.95;;;;;;;;;;5037851;28;20017;-80
2024/01/23 09:19:56;;;;;;;35.97;5.57;;;;;;;;;;5028641;28;20068;-80
2024/01/23 09:22:22;;;;;;;38.72;6.00;;;;;;;;;;5043979;28;20195;-80
2024/01/23 09:24:48;;;;;;;30.85;4.88;;;;;;;;;;5046368;28;20021;-80
2024/01/23 09:27:14;;;;;;;31.50;4.82;;;;;;;;;;5045822;28;20027;-80
2024/01/23 09:29:42;;;;;;;46.55;7.07;;;;;;;;;;5046428;28;20029;-80
2024/01/23 09:32:08;;;;;;;35.33;6.65;;;;;;;;;;5035252;28;20029;-81
2024/01/23 09:34:34;;;;;;;44.80;6.50;;;;;;;;;;5025611;28;20020;-80
2024/01/23 09:37:00;;;;;;;36.13;5.13;;;;;;;;;;5039186;28;20017;-80
2024/01/23 09:39:26;;;;;;;37.97;5.63;;;;;;;;;;5044986;28;20287;-81
2024/01/23 09:41:54;;;;;;;38.88;6.72;;;;;;;;;;5035001;28;20022;-80
2024/01/23 09:44:20;;;;;;;41.75;6.00;;;;;;;;;;5026399;28;20035;-80
2024/01/23 09:46:47;;;;;;;31.70;4.82;;;;;;;;;;5033087;28;20030;-80
2024/01/23 09:49:14;;;;;;;38.85;5.97;;;;;;;;;;5045791;28;20465;-80
2024/01/23 09:51:42;;;;;;;40.15;6.50;;;;;;;;;;5038160;28;20469;-80
2024/01/23 09:54:10;;;;;;;38.60;6.05;;;;;;;;;;5027554;28;20462;-81
2024/01/23 09:56:39;;;;;;;32.00;5.60;;;;;;;;;;5028526;28;20099;-80
2024/01/23 09:59:05;;;;;;;34.47;5.75;;;;;;;;;;5031635;28;20578;-80
2024/01/23 10:01:32;;;;;;;28.55;4.70;;;;;;;;;;5034770;28;20021;-81
2024/01/23 10:03:59;;;;;;;35.30;5.60;;;;;;;;;;5050221;28;20021;-81
2024/01/23 10:06:28;;;;;;;39.47;6.80;;;;;;;;;;5048591;28;20017;-81
2024/01/23 10:09:01;;;;;;;35.35;4.75;;;;;;;;;;5030300;28;20480;-81
2024/01/23 10:11:28;;;;;;;27.75;4.68;;;;;;;;;;5032909;28;20018;-81
2024/01/23 10:13:56;;;;;;;29.75;5.28;;;;;;;;;;5049973;28;20013;-81
2024/01/23 10:16:22;;;;;;;24.58;3.85;;;;;;;;;;5050833;28;20020;-80
2024/01/23 10:18:50;;;;;;;32.70;4.28;;;;;;;;;;5050820;28;20329;-80
2024/01/23 10:21:20;;;;;;;30.23;5.20;;;;;;;;;;5051235;28;20045;-81
2024/01/23 10:23:48;;;;;;;30.85;5.03;;;;;;;;;;5042277;28;20016;-81
2024/01/23 10:26:15;;;;;;;29.55;4.55;;;;;;;;;;5044166;28;20079;-80
2024/01/23 10:28:43;;;;;;;24.30;4.68;;;;;;;;;;5031260;28;20037;-80
2024/01/23 10:31:09;;;;;;;29.52;4.78;;;;;;;;;;5031514;28;20175;-80
2024/01/23 10:33:37;;;;;;;31.58;4.05;;;;;;;;;;5048068;28;20075;-80
2024/01/23 10:36:05;;;;;;;21.90;3.88;;;;;;;;;;5051476;28;20016;-80
2024/01/23 10:38:31;;;;;;;26.70;4.00;;;;;;;;;;5034245;28;20089;-80
2024/01/23 10:40:59;;;;;;;33.70;5.03;;;;;;;;;;5031445;28;20486;-81
2024/01/23 10:43:26;;;;;;;32.95;3.88;;;;;;;;;;5045920;28;20024;-81
2024/01/23 10:45:54;;;;;;;22.35;4.07;;;;;;;;;;5049748;28;20028;-80
2024/01/23 10:48:21;;;;;;;26.90;4.40;;;;;;;;;;5040261;28;20512;-81
2024/01/23 10:50:49;;;;;;;30.85;4.03;;;;;;;;;;5049665;28;20028;-80
2024/01/23 10:53:15;;;;;;;21.63;3.90;;;;;;;;;;5048897;28;20061;-81
2024/01/23 10:55:43;;;;;;;24.08;3.72;;;;;;;;;;5049606;28;20078;-80
2024/01/23 10:58:19;;;;;;;23.30;4.25;;;;;;;;;;5046920;28;20040;-81
2024/01/23 11:00:47;;;;;;;24.75;4.05;;;;;;;;;;5050457;28;20023;-80
2024/01/23 11:03:13;;;;;;;24.70;3.72;;;;;;;;;;5046244;28;20021;-81
2024/01/23 11:05:45;;;;;;;28.38;4.75;;;;;;;;;;5047783;28;20009;-80
2024/01/23 11:08:11;;;;;;;22.48;3.55;;;;;;;;;;5047341;28;20017;-81
2024/01/23 11:10:43;;;;;;;26.85;4.35;;;;;;;;;;5049693;28;20079;-81
2024/01/23 11:13:12;;;;;;;27.35;3.78;;;;;;;;;;5048758;28;20053;-81
2024/01/23 11:15:38;;;;;;;25.13;3.75;;;;;;;;;;5047659;28;20019;-81
2024/01/23 11:18:25;;;;;;;31.20;3.50;;;;;;;;;;5048326;28;20638;-81
2024/01/23 11:21:09;;;;;;;27.23;3.35;;;;;;;;;;5048554;28;20013;-81
2024/01/23 11:23:40;;;;;;;27.20;4.15;;;;;;;;;;5046761;28;20036;-81
2024/01/23 11:26:12;;;;;;;23.33;3.25;;;;;;;;;;5047201;28;20409;-81
2024/01/23 11:28:39;;;;;;;26.95;4.70;;;;;;;;;;5045934;28;20060;-81
2024/01/23 11:31:17;;;;;;;24.45;3.80;;;;;;;;;;5049620;28;20017;-81
2024/01/23 11:33:43;;;;;;;25.02;3.63;;;;;;;;;;5049165;28;20032;-81
2024/01/23 11:36:16;;;;;;;27.50;3.90;;;;;;;;;;5049651;28;20412;-83
2024/01/23 11:38:45;;;;;;;23.13;4.03;;;;;;;;;;5044143;28;20029;-82
2024/01/23 11:41:24;;;;;;;28.20;3.92;;;;;;;;;;5046174;28;20125;-81
2024/01/23 11:43:50;;;;;;;28.52;3.90;;;;;;;;;;5049200;28;20389;-81
2024/01/23 11:46:22;;;;;;;27.38;3.55;;;;;;;;;;5050631;28;20151;-83
2024/01/23 11:48:48;;;;;;;24.30;3.30;;;;;;;;;;5049777;28;20013;-80
2024/01/23 11:51:15;;;;;;;31.63;4.00;;;;;;;;;;5049102;28;20469;-82
2024/01/23 11:53:41;;;;;;;31.20;3.67;;;;;;;;;;5040157;28;20489;-82
2024/01/23 11:56:08;;;;;;;23.83;3.22;;;;;;;;;;5049911;28;20072;-81
2024/01/23 11:58:34;;;;;;;21.92;3.13;;;;;;;;;;5049038;28;20005;-82
2024/01/23 12:01:01;;;;;;;28.88;4.57;;;;;;;;;;5037369;28;20061;-81
2024/01/23 12:03:28;;;;;;;29.25;3.67;;;;;;;;;;5032517;28;20013;-82
2024/01/23 12:05:54;;;;;;;28.83;3.85;;;;;;;;;;5048879;28;20021;-82
2024/01/23 12:08:21;;;;;;;20.17;4.28;;;;;;;;;;5050400;28;20020;-82
2024/01/23 12:10:47;;;;;;;24.20;3.88;;;;;;;;;;5048645;28;20021;-82
2024/01/23 12:13:13;;;;;;;17.95;2.95;;;;;;;;;;5047481;28;20036;-82
2024/01/23 12:15:39;;;;;;;24.65;3.85;;;;;;;;;;5029930;28;20017;-82
2024/01/23 12:18:05;;;;;;;20.40;3.42;;;;;;;;;;5027821;28;20013;-82
2024/01/23 12:20:31;;;;;;;23.10;3.58;;;;;;;;;;5048101;28;20017;-82
2024/01/23 12:22:57;;;;;;;23.75;3.25;;;;;;;;;;5048492;28;20017;-82
2024/01/23 12:25:24;;;;;;;25.83;3.45;;;;;;;;;;5032294;28;20025;-82
2024/01/23 12:27:50;;;;;;;29.35;3.40;;;;;;;;;;5028249;28;20049;-82
2024/01/23 12:30:17;;;;;;;29.50;3.58;;;;;;;;;;5044083;28;20070;-82
2024/01/23 12:32:47;;;;;;;21.38;2.97;;;;;;;;;;5049702;28;20025;-82
2024/01/23 12:35:13;;;;;;;22.80;3.67;;;;;;;;;;5037323;28;20018;-82
2024/01/23 12:37:40;;;;;;;23.60;4.50;;;;;;;;;;5029828;28;20049;-82
2024/01/23 12:40:09;;;;;;;26.02;3.92;;;;;;;;;;5040494;28;20020;-82
2024/01/23 12:42:39;;;;;;;27.60;3.28;;;;;;;;;;5047902;28;20021;-82
2024/01/23 12:45:08;;;;;;;20.90;3.65;;;;;;;;;;5048190;28;20409;-82
2024/01/23 12:47:35;;;;;;;25.58;3.45;;;;;;;;;;5047668;28;20109;-81
2024/01/23 12:50:01;;;;;;;25.67;4.60;;;;;;;;;;5040258;28;20461;-81
2024/01/23 12:52:29;;;;;;;21.67;3.28;;;;;;;;;;5028967;28;20335;-81
2024/01/23 12:54:55;;;;;;;22.85;3.45;;;;;;;;;;5036358;28;20021;-83
2024/01/23 12:57:21;;;;;;;28.95;3.97;;;;;;;;;;5049515;28;20092;-82
2024/01/23 12:59:47;;;;;;;19.83;3.35;;;;;;;;;;5044945;28;20022;-88
2024/01/23 13:02:14;;;;;;;19.83;3.30;;;;;;;;;;5030789;28;20023;-84
2024/01/23 13:04:40;;;;;;;22.50;3.67;;;;;;;;;;5035993;28;20048;-83
2024/01/23 13:07:08;;;;;;;19.05;3.38;;;;;;;;;;5047037;28;20068;-82
2024/01/23 13:09:34;;;;;;;19.33;3.05;;;;;;;;;;5040209;28;20021;-82
2024/01/23 13:12:00;;;;;;;20.23;3.47;;;;;;;;;;5044107;28;20022;-83
2024/01/23 13:14:28;;;;;;;23.38;4.10;;;;;;;;;;5048604;28;20377;-83
2024/01/23 13:16:54;;;;;;;31.67;4.28;;;;;;;;;;5047614;28;20013;-83
2024/01/23 13:19:20;;;;;;;25.52;3.65;;;;;;;;;;5049200;28;20020;-83
2024/01/23 13:21:46;;;;;;;17.45;2.72;;;;;;;;;;5027724;28;20022;-83
2024/01/23 13:24:12;;;;;;;26.38;4.85;;;;;;;;;;5029104;28;20013;-82
2024/01/23 13:26:39;;;;;;;22.13;4.10;;;;;;;;;;5047238;28;20098;-83
2024/01/23 13:29:05;;;;;;;22.48;4.32;;;;;;;;;;5046742;28;20500;-82
2024/01/23 13:31:34;;;;;;;23.10;4.72;;;;;;;;;;5044696;28;20075;-82
2024/01/23 13:34:01;;;;;;;19.92;3.65;;;;;;;;;;5047260;28;20068;-83
2024/01/23 13:36:27;;;;;;;18.77;3.45;;;;;;;;;;5032219;28;20017;-83
2024/01/23 13:38:53;;;;;;;23.90;3.67;;;;;;;;;;5029118;28;20562;-82
2024/01/23 13:41:19;;;;;;;23.90;3.85;;;;;;;;;;5043496;28;20021;-83
2024/01/23 13:43:46;;;;;;;23.38;3.70;;;;;;;;;;5048477;28;20021;-83
2024/01/23 13:46:12;;;;;;;23.13;3.22;;;;;;;;;;5047062;28;20536;-83
2024/01/23 13:48:38;;;;;;;19.95;3.05;;;;;;;;;;5047614;28;20503;-83
2024/01/23 13:51:04;;;;;;;27.52;3.70;;;;;;;;;;5044099;28;20029;-83
2024/01/23 13:53:30;;;;;;;16.85;3.25;;;;;;;;;;5047079;28;20078;-83
2024/01/23 13:55:56;;;;;;;23.98;3.25;;;;;;;;;;5045773;28;20096;-83
2024/01/23 13:58:22;;;;;;;23.25;4.03;;;;;;;;;;5046762;28;20017;-83
2024/01/23 14:00:48;;;;;;;15.60;3.40;;;;;;;;;;5037548;28;20040;-82
2024/01/23 14:03:14;;;;;;;23.42;3.55;;;;;;;;;;5027453;28;20405;-83
2024/01/23 14:05:40;;;;;;;23.40;4.55;;;;;;;;;;5027711;28;20029;-83
2024/01/23 14:08:08;;;;;;;20.00;3.70;;;;;;;;;;5028776;28;20024;-83
2024/01/23 14:10:34;;;;;;;17.42;3.78;;;;;;;;;;5035839;28;20062;-83
2024/01/23 14:13:00;;;;;;;20.55;3.42;;;;;;;;;;5048613;28;20473;-82
2024/01/23 14:15:26;;;;;;;20.17;3.28;;;;;;;;;;5044602;28;20460;-83
2024/01/23 14:17:52;;;;;;;24.30;3.28;;;;;;;;;;5040354;28;20013;-82
2024/01/23 14:20:18;;;;;;;23.33;3.35;;;;;;;;;;5033521;28;20525;-83
2024/01/23 14:22:45;;;;;;;19.33;3.20;;;;;;;;;;5046847;28;20025;-82
2024/01/23 14:25:12;;;;;;;21.00;3.20;;;;;;;;;;5046423;28;20013;-82
2024/01/23 14:27:43;;;;;;;18.15;2.40;;;;;;;;;;5026851;28;20112;-82